Mansehra Weather



Mansehra's Current Weather

Temprature 10.774o broken clouds

broken clouds

Rain: 0 %

Min Temprature10.774o
Max Temprature10.774o
Humidity73
Wind Speed0.71 m/h
Sun Rise06:43:38
Sun Set17:57:56
Current Time: 23-Feb-2019 15:43:52
Lat/Lon: 34.33, 73.2




Mansehra's Geo Location




Mansehra's Weather Forecast

Time Overall Temp Min Temp Max Temp Humidity Wind Speed Rain
23-Feb-2019 (Sat)
17:00:00 broken clouds 8.880 8.880 10.774 73 0.71 m/h 0 %
20:00:00 broken clouds 3.260 3.260 4.683 89 0.62 m/h 0 %
23:00:00 light rain 1.620 1.620 2.565 92 1.42 m/h 4 %
24-Feb-2019 (Sun)
02:00:00 scattered clouds 1.660 1.660 2.135 84 1.86 m/h 0 %
05:00:00 clear sky 2.042 2.042 2.042 83 1.91 m/h 0 %
08:00:00 clear sky 3.603 3.603 3.603 73 1.86 m/h 0 %
11:00:00 clear sky 11.574 11.574 11.574 67 0.96 m/h 0 %
14:00:00 light rain 11.081 11.081 11.081 72 1.07 m/h 33 %
17:00:00 light rain 10.021 10.021 10.021 77 0.7 m/h 62 %
20:00:00 few clouds 3.168 3.168 3.168 84 1.21 m/h 0 %
23:00:00 few clouds 2.436 2.436 2.436 75 1.86 m/h 0 %
25-Feb-2019 (Mon)
02:00:00 few clouds 1.780 1.780 1.780 73 1.97 m/h 0 %
05:00:00 scattered clouds 1.477 1.477 1.477 72 1.86 m/h 0 %
08:00:00 broken clouds 3.120 3.120 3.120 71 1.62 m/h 0 %
11:00:00 light rain 7.947 7.947 7.947 74 1.16 m/h 3 %
14:00:00 light rain 8.523 8.523 8.523 81 0.77 m/h 43 %
17:00:00 light rain 6.612 6.612 6.612 93 0.71 m/h 94 %
20:00:00 light rain 4.348 4.348 4.348 94 0.96 m/h 66 %
23:00:00 light rain 3.642 3.642 3.642 95 0.96 m/h 160 %
26-Feb-2019 (Tue)
02:00:00 light rain 3.176 3.176 3.176 94 1.06 m/h 90 %
05:00:00 light rain 2.722 2.722 2.722 96 1.06 m/h 90 %
08:00:00 light rain 3.457 3.457 3.457 96 1.17 m/h 22 %
11:00:00 light rain 8.592 8.592 8.592 81 1.02 m/h 1 %
14:00:00 overcast clouds 9.321 9.321 9.321 71 1.16 m/h 0 %
17:00:00 light rain 7.839 7.839 7.839 79 0.71 m/h 6 %
20:00:00 clear sky 2.111 2.111 2.111 90 0.62 m/h 0 %
23:00:00 scattered clouds -0.877 -0.877 -0.877 83 0.72 m/h 0 %
27-Feb-2019 (Wed)
02:00:00 light rain 0.281 0.281 0.281 100 1.01 m/h 7 %
05:00:00 light rain -0.157 -0.157 -0.157 83 1.25 m/h 1 %
08:00:00 clear sky 1.615 1.615 1.615 79 1.42 m/h 0 %
11:00:00 few clouds 7.745 7.745 7.745 82 1.26 m/h 0 %
14:00:00 light rain 6.261 6.261 6.261 97 1.2 m/h 115 %
17:00:00 scattered clouds 6.723 6.723 6.723 80 1.16 m/h 0 %
20:00:00 light rain 2.617 2.617 2.617 86 0.87 m/h 1 %
23:00:00 few clouds -0.659 -0.659 -0.659 82 1.07 m/h 0 %
28-Feb-2019 (Thu)
02:00:00 scattered clouds -0.609 -0.609 -0.609 82 1.86 m/h 0 %
05:00:00 broken clouds -0.962 -0.962 -0.962 79 2.01 m/h 0 %
08:00:00 broken clouds 0.940 0.940 0.940 73 1.16 m/h 0 %
11:00:00 overcast clouds 6.097 6.097 6.097 73 1.21 m/h 0 %
14:00:00 overcast clouds 9.354 9.354 9.354 62 0.72 m/h 0 %

Famous Cities (60)